createdAt,value
2019-01-04T00:00:34.827Z,13.87
2019-01-04T00:03:03.993Z,16.17
2019-01-04T00:05:33.446Z,19.43
2019-01-04T00:08:02.949Z,16.47
2019-01-04T00:10:32.457Z,13.20
2019-01-04T00:13:01.665Z,18.27
2019-01-04T00:15:30.899Z,15.93
2019-01-04T00:18:00.048Z,15.50
2019-01-04T00:20:29.224Z,15.03
2019-01-04T00:22:58.466Z,13.70
2019-01-04T00:25:27.631Z,17.73
2019-01-04T00:27:56.867Z,15.27
2019-01-04T00:30:26.435Z,14.70
2019-01-04T00:32:55.902Z,14.60
2019-01-04T00:35:25.844Z,12.67
2019-01-04T00:37:55.072Z,13.17
2019-01-04T00:40:24.602Z,14.60
2019-01-04T00:42:53.828Z,13.50
2019-01-04T00:45:22.997Z,16.33
2019-01-04T00:47:52.146Z,15.17
2019-01-04T00:50:21.639Z,15.63
2019-01-04T00:52:50.850Z,13.67
2019-01-04T00:56:09.512Z,13.97
2019-01-04T00:59:10.977Z,11.43
2019-01-04T01:02:13.325Z,13.87
2019-01-04T01:05:18.351Z,18.97
2019-01-04T01:08:30.754Z,14.83
2019-01-04T01:11:42.998Z,14.57
2019-01-04T01:15:02.098Z,16.27
2019-01-04T01:18:20.944Z,19.53
2019-01-04T01:21:26.954Z,16.13
2019-01-04T01:24:36.402Z,13.17
2019-01-04T01:27:52.385Z,13.17
2019-01-04T01:31:04.560Z,14.43
2019-01-04T01:33:56.306Z,16.10
2019-01-04T01:36:59.088Z,15.97
2019-01-04T01:40:04.222Z,14.30
2019-01-04T01:43:27.261Z,20.13
2019-01-04T01:46:33.632Z,16.20
2019-01-04T01:49:43.187Z,16.17
2019-01-04T01:52:19.587Z,20.00
2019-01-04T01:54:49.043Z,20.27
2019-01-04T01:57:18.201Z,12.23
2019-01-04T01:59:47.334Z,13.77
2019-01-04T02:02:16.501Z,13.77
2019-01-04T02:04:45.699Z,12.90
2019-01-04T02:07:15.152Z,15.67
2019-01-04T02:09:44.693Z,9.70
2019-01-04T02:12:13.868Z,12.87
2019-01-04T02:14:43.321Z,10.37
2019-01-04T02:17:12.763Z,13.03
2019-01-04T02:19:42.572Z,12.40
2019-01-04T02:22:11.756Z,14.37
2019-01-04T02:24:41.328Z,11.90
2019-01-04T02:27:10.856Z,12.77
2019-01-04T02:29:40.036Z,9.60
2019-01-04T02:32:09.202Z,11.40
2019-01-04T02:34:38.421Z,10.70
2019-01-04T02:37:07.570Z,13.47
2019-01-04T02:39:36.714Z,11.73
2019-01-04T02:42:05.848Z,10.83
2019-01-04T02:44:34.989Z,7.67
2019-01-04T02:47:04.479Z,10.03
2019-01-04T02:49:33.687Z,9.97
2019-01-04T02:52:02.813Z,9.83
2019-01-04T02:54:31.998Z,11.07
2019-01-04T02:57:01.411Z,7.73
2019-01-04T02:59:30.825Z,13.90
2019-01-04T03:02:00.013Z,10.53
2019-01-04T03:04:29.547Z,14.87
2019-01-04T03:06:58.678Z,13.07
2019-01-04T03:09:28.132Z,11.47
2019-01-04T03:11:57.276Z,11.63
2019-01-04T03:14:26.489Z,8.90
2019-01-04T03:16:55.621Z,10.40
2019-01-04T03:19:24.860Z,9.20
2019-01-04T03:21:53.987Z,11.57
2019-01-04T03:24:23.125Z,6.53
2019-01-04T03:26:52.255Z,11.97
2019-01-04T03:29:21.398Z,13.07
2019-01-04T03:31:50.622Z,10.53
2019-01-04T03:34:19.756Z,12.23
2019-01-04T03:36:49.211Z,12.27
2019-01-04T03:39:18.439Z,15.57
2019-01-04T03:41:48.175Z,11.07
2019-01-04T03:44:17.311Z,13.93
2019-01-04T03:46:46.434Z,9.33
2019-01-04T03:49:15.590Z,9.27
2019-01-04T03:51:45.251Z,10.57
2019-01-04T03:54:14.766Z,10.10
2019-01-04T03:56:43.897Z,9.83
2019-01-04T03:59:13.042Z,10.03
2019-01-04T04:01:42.247Z,12.93
2019-01-04T04:04:11.401Z,10.87
2019-01-04T04:06:40.550Z,11.97
2019-01-04T04:09:09.774Z,14.07
2019-01-04T04:11:38.943Z,10.73
2019-01-04T04:14:08.491Z,14.93
2019-01-04T04:16:37.650Z,14.87
2019-01-04T04:19:07.194Z,12.13
2019-01-04T04:21:36.329Z,10.77
2019-01-04T04:24:05.529Z,10.57
2019-01-04T04:26:34.763Z,11.37
2019-01-04T04:29:04.033Z,11.70
2019-01-04T04:31:33.828Z,12.57
2019-01-04T04:34:03.086Z,10.23
2019-01-04T04:36:32.278Z,12.10
2019-01-04T04:39:01.425Z,14.73
2019-01-04T04:41:30.868Z,11.67
2019-01-04T04:44:00.204Z,12.47
2019-01-04T04:46:29.557Z,16.13
2019-01-04T04:48:58.885Z,12.13
2019-01-04T04:51:28.064Z,18.67
2019-01-04T04:53:58.054Z,15.27
2019-01-04T04:56:27.233Z,17.87
2019-01-04T04:58:56.687Z,13.90
2019-01-04T05:01:26.488Z,10.17
2019-01-04T05:03:55.612Z,15.57
2019-01-04T05:06:24.865Z,15.70
2019-01-04T05:08:54.280Z,11.83
2019-01-04T05:11:23.413Z,10.13
2019-01-04T05:13:52.548Z,11.03
2019-01-04T05:16:21.776Z,15.03
2019-01-04T05:18:50.933Z,15.17
2019-01-04T05:21:20.065Z,12.80
2019-01-04T05:23:49.204Z,12.00
2019-01-04T05:26:20.103Z,10.70
2019-01-04T05:28:49.242Z,10.93
2019-01-04T05:31:18.480Z,11.23
2019-01-04T05:33:52.722Z,14.73
2019-01-04T05:36:21.931Z,11.50
2019-01-04T05:38:51.081Z,11.50
2019-01-04T05:41:20.645Z,15.90
2019-01-04T05:43:49.875Z,10.23
2019-01-04T05:46:19.049Z,19.20
2019-01-04T05:48:48.222Z,15.33
2019-01-04T05:51:17.437Z,18.60
2019-01-04T05:53:46.596Z,18.77
2019-01-04T05:56:15.814Z,19.93
2019-01-04T05:58:45.258Z,15.10
2019-01-04T06:01:14.757Z,20.30
2019-01-04T06:03:43.986Z,22.07
2019-01-04T06:06:13.127Z,17.70
2019-01-04T06:08:42.274Z,21.60
2019-01-04T06:11:11.411Z,27.20
2019-01-04T06:13:40.563Z,21.57
2019-01-04T06:16:09.684Z,21.13
2019-01-04T06:18:39.160Z,20.30
2019-01-04T06:21:08.366Z,19.20
2019-01-04T06:23:37.848Z,24.07
2019-01-04T06:26:06.993Z,24.27
2019-01-04T06:28:36.162Z,23.97
2019-01-04T06:31:05.734Z,24.23
2019-01-04T06:33:35.541Z,21.37
2019-01-04T06:36:05.142Z,23.30
2019-01-04T06:38:34.418Z,23.60
2019-01-04T06:41:03.657Z,25.47
2019-01-04T06:43:32.868Z,29.23
2019-01-04T06:46:02.026Z,27.93
2019-01-04T06:48:31.173Z,33.03
2019-01-04T06:51:00.643Z,33.90
2019-01-04T06:53:29.784Z,33.60
2019-01-04T06:56:00.486Z,31.23
2019-01-04T06:58:29.651Z,34.33
2019-01-04T07:00:58.894Z,29.47
2019-01-04T07:03:28.865Z,32.43
2019-01-04T07:05:58.703Z,27.90
2019-01-04T07:08:27.854Z,26.80
2019-01-04T07:10:56.996Z,28.63
2019-01-04T07:13:26.534Z,29.47
2019-01-04T07:15:56.013Z,25.67
2019-01-04T07:18:25.158Z,26.97
2019-01-04T07:20:54.314Z,27.23
2019-01-04T07:23:24.103Z,30.33
2019-01-04T07:25:53.274Z,28.50
2019-01-04T07:28:23.264Z,32.17
2019-01-04T07:30:53.013Z,29.37
2019-01-04T07:33:22.500Z,32.07
2019-01-04T07:35:51.659Z,25.43
2019-01-04T07:38:20.812Z,31.23
2019-01-04T07:40:50.007Z,29.77
2019-01-04T07:43:19.810Z,27.07
2019-01-04T07:45:49.298Z,21.20
2019-01-04T07:48:18.438Z,29.43
2019-01-04T07:50:47.610Z,25.13
2019-01-04T07:53:16.830Z,31.80
2019-01-04T07:55:45.987Z,32.77
2019-01-04T07:58:15.142Z,31.10
2019-01-04T08:00:45.016Z,27.80
2019-01-04T08:03:25.206Z,33.13
2019-01-04T08:05:57.192Z,32.33
2019-01-04T08:08:26.341Z,38.13
2019-01-04T08:10:55.818Z,35.70
2019-01-04T08:13:25.038Z,30.77
2019-01-04T08:15:54.213Z,30.23
2019-01-04T08:18:23.409Z,32.43
2019-01-04T08:20:52.909Z,24.33
2019-01-04T08:23:22.051Z,24.50
2019-01-04T08:25:51.212Z,24.53
2019-01-04T08:28:20.724Z,29.47
2019-01-04T08:30:49.869Z,17.30
2019-01-04T08:33:19.388Z,21.57
2019-01-04T08:35:48.529Z,22.17
2019-01-04T08:38:18.018Z,19.13
2019-01-04T08:40:47.595Z,24.40
2019-01-04T08:43:16.889Z,23.73
2019-01-04T08:45:46.126Z,23.17
2019-01-04T08:48:15.732Z,24.63
2019-01-04T08:50:44.956Z,26.23
2019-01-04T08:53:14.215Z,27.87
2019-01-04T08:55:43.635Z,24.37
2019-01-04T08:58:12.856Z,26.03
2019-01-04T09:00:42.030Z,28.70
2019-01-04T09:03:11.165Z,27.30
2019-01-04T09:05:40.635Z,24.20
2019-01-04T09:08:09.785Z,30.73
2019-01-04T09:10:39.399Z,29.17
2019-01-04T09:13:08.620Z,35.30
2019-01-04T09:15:37.831Z,31.30
2019-01-04T09:18:07.102Z,29.13
2019-01-04T09:20:36.611Z,36.00
2019-01-04T09:23:05.785Z,31.23
2019-01-04T09:25:35.345Z,33.43
2019-01-04T09:28:04.503Z,29.90
2019-01-04T09:30:34.003Z,34.63
2019-01-04T09:33:03.174Z,36.87
2019-01-04T09:35:32.395Z,27.73
2019-01-04T09:38:01.980Z,32.63
2019-01-04T09:40:31.569Z,30.53
2019-01-04T09:43:00.737Z,33.07
2019-01-04T09:45:29.881Z,33.83
2019-01-04T09:47:59.402Z,35.87
2019-01-04T09:50:28.554Z,31.90
2019-01-04T09:52:58.108Z,32.33
2019-01-04T09:55:27.266Z,35.27
2019-01-04T09:57:56.481Z,33.47
2019-01-04T10:00:26.532Z,36.33
2019-01-04T10:02:55.777Z,34.17
2019-01-04T10:05:24.991Z,37.07
2019-01-04T10:07:54.878Z,36.93
2019-01-04T10:10:24.040Z,36.00
2019-01-04T10:12:53.198Z,40.07
2019-01-04T10:15:22.734Z,38.43
2019-01-04T10:17:51.895Z,37.93
2019-01-04T10:20:21.063Z,37.97
2019-01-04T10:22:50.284Z,40.23
2019-01-04T10:25:19.803Z,39.70
2019-01-04T10:27:49.051Z,42.97
2019-01-04T10:30:25.116Z,38.93
2019-01-04T10:32:54.677Z,44.07
2019-01-04T10:35:24.155Z,42.33
2019-01-04T10:37:53.304Z,40.73
2019-01-04T10:40:22.446Z,39.67
2019-01-04T10:42:52.064Z,48.77
2019-01-04T10:45:21.206Z,43.77
2019-01-04T10:47:50.390Z,45.90
2019-01-04T10:50:19.878Z,47.17
2019-01-04T10:52:49.384Z,45.77
2019-01-04T10:55:18.599Z,44.93
2019-01-04T10:57:47.782Z,53.53
2019-01-04T11:00:16.937Z,45.00
2019-01-04T11:02:46.183Z,47.63
2019-01-04T11:05:15.372Z,50.20
2019-01-04T11:07:44.534Z,54.40
2019-01-04T11:10:14.143Z,45.90
2019-01-04T11:12:43.324Z,56.13
2019-01-04T11:15:12.675Z,46.27
2019-01-04T11:17:42.236Z,50.17
2019-01-04T11:20:37.337Z,46.23
2019-01-04T11:23:33.731Z,50.10
2019-01-04T11:26:33.067Z,48.17
2019-01-04T11:30:07.604Z,47.20
2019-01-04T11:33:27.418Z,48.37
2019-01-04T11:36:08.951Z,43.67
2019-01-04T11:39:17.702Z,53.33
2019-01-04T11:42:24.861Z,38.07
2019-01-04T11:45:19.726Z,46.67
2019-01-04T11:48:41.523Z,45.10
2019-01-04T11:51:33.015Z,49.07
2019-01-04T11:54:05.584Z,53.43
2019-01-04T11:56:34.800Z,47.13
2019-01-04T11:59:04.041Z,56.93
2019-01-04T12:01:33.267Z,52.03
2019-01-04T12:04:02.543Z,55.80
2019-01-04T12:06:31.685Z,47.37
2019-01-04T12:09:00.836Z,44.17
2019-01-04T12:11:30.015Z,50.43
2019-01-04T12:13:59.225Z,48.57
2019-01-04T12:16:28.402Z,41.50
2019-01-04T12:18:58.517Z,45.23
2019-01-04T12:21:28.012Z,45.50
2019-01-04T12:23:57.144Z,62.53
2019-01-04T12:26:26.613Z,52.53
2019-01-04T12:28:55.760Z,49.43
2019-01-04T12:31:25.015Z,51.73
2019-01-04T12:33:54.213Z,47.90
2019-01-04T12:36:23.420Z,49.60
2019-01-04T12:38:52.563Z,51.87
2019-01-04T12:41:21.796Z,47.73
2019-01-04T12:43:51.317Z,45.27
2019-01-04T12:46:20.479Z,55.83
2019-01-04T12:48:49.642Z,47.57
2019-01-04T12:51:19.101Z,56.23
2019-01-04T12:53:48.326Z,43.47
2019-01-04T12:56:17.762Z,47.57
2019-01-04T12:58:47.560Z,49.93
2019-01-04T13:01:16.794Z,41.87
2019-01-04T13:03:45.972Z,50.13
2019-01-04T13:06:15.101Z,47.13
2019-01-04T13:08:44.243Z,44.73
2019-01-04T13:11:13.406Z,53.17
2019-01-04T13:13:42.657Z,50.43
2019-01-04T13:16:11.897Z,40.63
2019-01-04T13:18:41.057Z,41.90
2019-01-04T13:21:10.285Z,38.93
2019-01-04T13:23:39.501Z,35.93
2019-01-04T13:26:09.047Z,39.90
2019-01-04T13:28:38.266Z,39.80
2019-01-04T13:31:07.419Z,42.63
2019-01-04T13:33:37.009Z,39.20
2019-01-04T13:36:06.462Z,46.23
2019-01-04T13:38:35.602Z,48.63
2019-01-04T13:41:04.786Z,45.87
2019-01-04T13:43:33.986Z,48.20
2019-01-04T13:46:03.163Z,49.63
2019-01-04T13:48:32.440Z,49.10
2019-01-04T13:51:01.582Z,39.27
2019-01-04T13:53:30.744Z,45.20
2019-01-04T13:55:59.887Z,41.73
2019-01-04T13:58:29.150Z,46.87
2019-01-04T14:00:58.686Z,47.53
2019-01-04T14:03:28.556Z,46.80
2019-01-04T14:05:57.768Z,48.73
2019-01-04T14:08:26.940Z,47.53
2019-01-04T14:10:56.801Z,45.97
2019-01-04T14:13:26.030Z,58.10
2019-01-04T14:15:55.240Z,56.07
2019-01-04T14:18:24.425Z,52.03
2019-01-04T14:20:53.601Z,49.00
2019-01-04T14:23:28.669Z,60.03
2019-01-04T14:25:53.654Z,46.33
2019-01-04T14:28:22.919Z,49.83
2019-01-04T14:30:52.082Z,47.47
2019-01-04T14:33:21.593Z,51.23
2019-01-04T14:35:51.197Z,50.33
2019-01-04T14:38:20.921Z,46.73
2019-01-04T14:40:50.487Z,49.37
2019-01-04T14:43:21.735Z,45.83
2019-01-04T14:45:51.029Z,44.60
2019-01-04T14:48:20.269Z,41.87
2019-01-04T14:50:49.536Z,46.30
2019-01-04T14:53:18.824Z,43.00
2019-01-04T14:55:48.342Z,41.03
2019-01-04T14:58:17.597Z,37.00
2019-01-04T15:00:46.770Z,34.00
2019-01-04T15:03:15.960Z,37.83
2019-01-04T15:05:50.331Z,33.47
2019-01-04T15:08:16.129Z,39.40
2019-01-04T15:10:45.398Z,32.40
2019-01-04T15:13:14.844Z,38.27
2019-01-04T15:15:44.009Z,32.13
2019-01-04T15:18:13.688Z,35.80
2019-01-04T15:20:43.188Z,32.80
2019-01-04T15:23:12.370Z,34.60
2019-01-04T15:25:41.562Z,30.73
2019-01-04T15:28:10.748Z,34.63
2019-01-04T15:30:39.985Z,34.23
2019-01-04T15:33:09.306Z,34.73
2019-01-04T15:35:38.485Z,28.73
2019-01-04T15:38:07.751Z,30.90
2019-01-04T15:40:36.913Z,29.93
2019-01-04T15:43:06.097Z,39.43
2019-01-04T15:45:35.347Z,40.13
2019-01-04T15:48:04.508Z,34.07
2019-01-04T15:50:34.197Z,31.57
2019-01-04T15:53:03.797Z,34.70
2019-01-04T15:55:33.078Z,33.93
2019-01-04T15:58:02.239Z,31.50
2019-01-04T16:00:31.414Z,33.60
2019-01-04T16:03:00.589Z,36.27
2019-01-04T16:05:29.816Z,32.67
2019-01-04T16:07:59.647Z,34.30
2019-01-04T16:10:29.279Z,30.27
2019-01-04T16:12:58.655Z,32.57
2019-01-04T16:15:27.879Z,30.43
2019-01-04T16:17:57.255Z,37.37
2019-01-04T16:20:26.487Z,34.80
2019-01-04T16:22:55.746Z,30.87
2019-01-04T16:25:24.913Z,31.47
2019-01-04T16:27:54.168Z,33.77
2019-01-04T16:30:23.449Z,33.17
2019-01-04T16:32:53.389Z,35.33
2019-01-04T16:35:22.574Z,39.73
2019-01-04T16:37:51.877Z,36.23
2019-01-04T16:40:21.230Z,29.57
2019-01-04T16:42:50.767Z,31.93
2019-01-04T16:45:20.031Z,33.97
2019-01-04T16:47:49.181Z,34.00
2019-01-04T16:50:18.762Z,38.00
2019-01-04T16:52:48.370Z,35.93
2019-01-04T16:55:17.573Z,33.53
2019-01-04T16:57:46.812Z,31.00
2019-01-04T17:00:16.709Z,40.03
2019-01-04T17:02:46.040Z,34.40
2019-01-04T17:05:15.240Z,35.83
2019-01-04T17:07:44.407Z,36.83
2019-01-04T17:10:13.566Z,32.97
2019-01-04T17:12:43.056Z,34.97
2019-01-04T17:15:12.216Z,38.27
2019-01-04T17:17:41.654Z,41.13
2019-01-04T17:20:10.881Z,31.53
2019-01-04T17:22:40.070Z,34.10
2019-01-04T17:25:09.230Z,34.73
2019-01-04T17:27:46.245Z,40.63
2019-01-04T17:30:35.268Z,36.30
2019-01-04T17:33:04.573Z,35.30
2019-01-04T17:35:42.947Z,41.30
2019-01-04T17:38:12.208Z,37.13
2019-01-04T17:40:41.395Z,36.10
2019-01-04T17:43:10.683Z,34.63
2019-01-04T17:45:40.216Z,34.73
2019-01-04T17:48:10.000Z,31.23
2019-01-04T17:50:39.178Z,33.03
2019-01-04T17:53:08.389Z,34.20
2019-01-04T17:55:37.894Z,41.13
2019-01-04T17:58:07.452Z,38.90
2019-01-04T18:00:36.881Z,42.37
2019-01-04T18:03:06.406Z,42.00
2019-01-04T18:05:35.559Z,32.60
2019-01-04T18:08:04.913Z,35.20
2019-01-04T18:10:34.130Z,35.07
2019-01-04T18:13:03.609Z,40.30
2019-01-04T18:15:33.116Z,40.73
2019-01-04T18:18:02.284Z,42.57
2019-01-04T18:20:31.518Z,35.63
2019-01-04T18:23:00.680Z,37.50
2019-01-04T18:25:30.207Z,40.00
2019-01-04T18:27:59.436Z,37.83
2019-01-04T18:30:28.992Z,36.83
2019-01-04T18:32:58.134Z,39.77
2019-01-04T18:35:27.703Z,36.47
2019-01-04T18:37:57.208Z,40.23
2019-01-04T18:40:26.388Z,38.67
2019-01-04T18:42:55.552Z,45.17
2019-01-04T18:45:24.720Z,40.60
2019-01-04T18:47:53.872Z,42.30
2019-01-04T18:50:23.902Z,39.27
2019-01-04T18:52:53.154Z,42.03
2019-01-04T18:55:22.365Z,36.47
2019-01-04T18:57:51.904Z,38.33
2019-01-04T19:00:21.409Z,43.13
2019-01-04T19:02:50.623Z,42.00
2019-01-04T19:05:19.826Z,41.67
2019-01-04T19:07:49.014Z,42.77
2019-01-04T19:10:18.157Z,40.33
2019-01-04T19:12:47.792Z,41.00
2019-01-04T19:15:17.030Z,38.23
2019-01-04T19:17:46.494Z,39.07
2019-01-04T19:20:15.637Z,42.90
2019-01-04T19:22:45.099Z,47.00
2019-01-04T19:25:14.664Z,39.87
2019-01-04T19:27:43.846Z,41.47
2019-01-04T19:30:13.011Z,38.70
2019-01-04T19:32:42.167Z,39.70
2019-01-04T19:35:11.326Z,43.37
2019-01-04T19:37:40.482Z,44.93
2019-01-04T19:40:09.989Z,40.57
2019-01-04T19:42:39.129Z,40.47
2019-01-04T19:45:08.549Z,45.73
2019-01-04T19:47:37.715Z,37.93
2019-01-04T19:50:23.806Z,40.07
2019-01-04T19:52:52.961Z,43.70
2019-01-04T19:55:22.448Z,39.80
2019-01-04T19:57:51.619Z,38.70
2019-01-04T20:00:20.834Z,43.50
2019-01-04T20:02:50.009Z,40.60
2019-01-04T20:05:38.509Z,37.53
2019-01-04T20:08:51.113Z,43.07
2019-01-04T20:12:36.517Z,43.23
2019-01-04T20:16:02.486Z,46.27
2019-01-04T20:18:50.533Z,37.53
2019-01-04T20:21:34.926Z,45.83
2019-01-04T20:24:19.690Z,45.23
2019-01-04T20:27:15.670Z,42.73
2019-01-04T20:30:02.580Z,43.90
2019-01-04T20:32:50.046Z,45.27
2019-01-04T20:35:37.430Z,42.37
2019-01-04T20:38:21.315Z,42.87
2019-01-04T20:41:08.184Z,47.13
2019-01-04T20:44:05.254Z,41.60
2019-01-04T20:47:07.753Z,43.70
2019-01-04T20:50:01.850Z,45.67
2019-01-04T20:52:47.713Z,49.47
2019-01-04T20:55:34.581Z,43.60
2019-01-04T20:58:28.886Z,43.13
2019-01-04T21:01:19.423Z,46.20
2019-01-04T21:04:07.332Z,41.10
2019-01-04T21:06:54.398Z,47.30
2019-01-04T21:09:41.341Z,38.07
2019-01-04T21:12:28.280Z,46.77
2019-01-04T21:15:21.436Z,41.43
2019-01-04T21:18:08.611Z,43.10
2019-01-04T21:21:12.112Z,40.10
2019-01-04T21:23:59.470Z,45.90
2019-01-04T21:27:00.023Z,43.73
2019-01-04T21:29:58.315Z,47.17
2019-01-04T21:32:45.082Z,40.53
2019-01-04T21:35:32.607Z,36.10
2019-01-04T21:38:19.849Z,39.97
2019-01-04T21:41:08.549Z,36.20
2019-01-04T21:43:55.438Z,32.33
2019-01-04T21:46:52.881Z,35.40
2019-01-04T21:49:53.399Z,35.90
2019-01-04T21:52:39.392Z,41.10
2019-01-04T21:55:26.541Z,38.90
2019-01-04T21:58:13.444Z,35.43
2019-01-04T22:01:00.515Z,38.00
2019-01-04T22:03:51.749Z,40.10
2019-01-04T22:06:43.361Z,37.23
2019-01-04T22:09:37.831Z,36.50
2019-01-04T22:12:26.385Z,36.90
2019-01-04T22:15:09.842Z,34.27
2019-01-04T22:17:56.864Z,34.73
2019-01-04T22:20:44.051Z,39.53
2019-01-04T22:23:43.600Z,40.53
2019-01-04T22:26:40.931Z,38.43
2019-01-04T22:29:31.138Z,36.40
2019-01-04T22:32:12.499Z,33.87
2019-01-04T22:35:00.703Z,37.07
2019-01-04T22:37:46.018Z,33.87
2019-01-04T22:40:33.780Z,35.20
2019-01-04T22:43:28.335Z,38.47
2019-01-04T22:46:19.739Z,35.53
2019-01-04T22:49:03.901Z,40.53
2019-01-04T22:51:50.696Z,39.10
2019-01-04T22:54:51.102Z,37.90
2019-01-04T22:57:39.298Z,34.37
2019-01-04T23:00:36.122Z,42.97
2019-01-04T23:03:36.970Z,39.50
2019-01-04T23:06:40.284Z,40.90
2019-01-04T23:09:37.933Z,40.73
2019-01-04T23:12:44.346Z,41.47
2019-01-04T23:15:35.409Z,40.60
2019-01-04T23:18:22.447Z,45.10
2019-01-04T23:21:22.701Z,44.30
2019-01-04T23:24:17.649Z,43.33
2019-01-04T23:27:04.449Z,39.60
2019-01-04T23:29:51.514Z,40.90
2019-01-04T23:32:30.584Z,42.87
2019-01-04T23:35:18.120Z,35.47
2019-01-04T23:38:05.114Z,41.30
2019-01-04T23:40:48.776Z,48.37
2019-01-04T23:43:37.086Z,39.10
2019-01-04T23:46:24.941Z,41.90
2019-01-04T23:49:25.383Z,44.77
2019-01-04T23:52:12.486Z,43.13
2019-01-04T23:55:13.539Z,43.90
2019-01-04T23:58:00.292Z,38.20
